Time;durP1;ratioP1;P1;durP2;ratioP2;P2;SDS_P1;SDS_P2;PMS_P1;PMS_P2;Temp;Humidity;BMP_temperature;BMP_pressure;BME280_temperature;BME280_humidity;BME280_pressure;Samples;Min_cycle;Max_cycle;Signal;HPM_P1;HPM_P2
2021/07/06 00:01:06;;;;;;;10.82;7.55;;;;;;;21.51;67.81;100299.58;5148211;56;1138951;-80
2021/07/06 00:06:11;;;;;;;7.87;7.12;;;;;;;21.50;68.35;100294.39;5148026;56;1140979;-85
2021/07/06 00:11:17;;;;;;;9.83;8.33;;;;;;;21.58;68.40;100297.75;5148304;56;1138856;-81
2021/07/06 00:16:23;;;;;;;11.68;9.50;;;;;;;21.59;68.04;100293.20;5148261;56;1138958;-85
2021/07/06 00:21:29;;;;;;;13.95;10.30;;;;;;;21.55;67.92;100293.27;5147822;56;1140647;-86
2021/07/06 00:26:35;;;;;;;13.35;9.85;;;;;;;21.50;67.73;100302.45;5139941;56;1142768;-86
2021/07/06 00:31:41;;;;;;;12.65;9.83;;;;;;;21.46;67.56;100291.25;5138170;56;1140677;-84
2021/07/06 00:36:47;;;;;;;14.33;10.98;;;;;;;21.37;67.27;100299.16;5138603;56;1140785;-81
2021/07/06 00:41:53;;;;;;;9.05;8.15;;;;;;;21.27;67.42;100305.36;5138218;56;1142906;-78
2021/07/06 00:46:58;;;;;;;13.90;9.35;;;;;;;20.97;67.37;100300.59;5138681;56;1138685;-78
2021/07/06 00:52:06;;;;;;;9.53;8.63;;;;;;;20.66;67.68;100303.57;5135797;55;1260575;-82
2021/07/06 00:57:12;;;;;;;7.80;7.17;;;;;;;20.61;68.78;100310.05;5137731;56;1138630;-81
2021/07/06 01:02:18;;;;;;;9.93;7.47;;;;;;;20.61;69.04;100311.39;5138153;56;1138590;-88
2021/07/06 01:07:24;;;;;;;8.68;7.75;;;;;;;20.55;69.09;100309.45;5138283;56;1139119;-81
2021/07/06 01:12:31;;;;;;;9.70;8.68;;;;;;;20.34;69.90;100310.17;5138069;56;1138584;-89
2021/07/06 01:17:39;;;;;;;9.07;8.27;;;;;;;20.34;69.90;100310.17;5137973;56;1138701;-81
2021/07/06 01:22:46;;;;;;;9.98;8.98;;;;;;;20.44;70.35;100316.66;5138188;56;1138715;-81
2021/07/06 01:27:52;;;;;;;11.03;9.23;;;;;;;20.40;70.01;100300.07;5145022;56;1138758;-87
2021/07/06 01:32:59;;;;;;;16.75;9.65;;;;;;;20.49;69.79;100300.78;5150848;55;1140683;-89
2021/07/06 01:38:07;;;;;;;11.90;9.90;;;;;;;20.50;69.63;100300.59;5193450;55;1140671;-82
2021/07/06 01:43:12;;;;;;;13.95;9.83;;;;;;;20.50;69.41;100299.77;5235918;55;1140708;-87
2021/07/06 01:48:19;;;;;;;10.53;9.10;;;;;;;20.46;69.27;100303.87;5235498;55;1140883;-80
2021/07/06 01:53:24;;;;;;;9.50;8.45;;;;;;;20.37;68.97;100305.81;5235481;55;1140835;-80
2021/07/06 01:58:32;;;;;;;10.72;9.53;;;;;;;20.34;69.12;100301.61;5160214;55;1138633;-81
2021/07/06 02:03:37;;;;;;;9.68;8.45;;;;;;;20.33;69.24;100297.25;5147556;56;1140686;-82
2021/07/06 02:08:43;;;;;;;10.63;9.53;;;;;;;20.36;69.31;100302.80;5148041;56;1138640;-86
2021/07/06 02:13:48;;;;;;;10.30;8.35;;;;;;;20.21;69.25;100299.27;5147691;56;1140707;-78
2021/07/06 02:18:55;;;;;;;11.20;8.85;;;;;;;20.06;69.31;100301.96;5146097;56;1140771;-89
2021/07/06 02:24:01;;;;;;;9.45;8.10;;;;;;;19.94;69.38;100302.11;5147796;56;1140691;-89
2021/07/06 02:29:07;;;;;;;10.40;9.40;;;;;;;19.89;70.05;100304.50;5162251;56;1138718;-82
2021/07/06 02:34:14;;;;;;;12.58;9.25;;;;;;;19.96;70.51;100300.08;5132600;56;1140836;-85
2021/07/06 02:39:20;;;;;;;11.20;10.00;;;;;;;19.95;70.40;100309.14;5147407;56;1140972;-82
2021/07/06 02:44:25;;;;;;;10.10;8.68;;;;;;;19.95;70.40;100309.14;5145843;56;1142783;-85
2021/07/06 02:49:31;;;;;;;29.70;9.98;;;;;;;19.88;70.32;100313.06;5147352;56;1140662;-86
2021/07/06 02:54:37;;;;;;;21.10;9.35;;;;;;;19.87;70.04;100312.73;5147527;56;1140628;-84
2021/07/06 02:59:43;;;;;;;16.97;10.00;;;;;;;19.87;69.85;100320.78;5148236;56;1140752;-84
2021/07/06 03:04:48;;;;;;;15.32;9.15;;;;;;;19.72;69.59;100319.94;5147578;56;1142713;-77
2021/07/06 03:09:54;;;;;;;12.13;9.23;;;;;;;19.64;70.05;100325.40;5172925;55;1140564;-80
2021/07/06 03:14:59;;;;;;;20.52;11.90;;;;;;;19.64;70.63;100328.91;5234707;55;1140510;-79
2021/07/06 03:20:09;;;;;;;12.75;9.53;;;;;;;19.62;70.30;100334.12;5196617;55;1142586;-82
2021/07/06 03:25:18;;;;;;;18.77;9.80;;;;;;;19.60;70.26;100334.31;5198576;55;1140636;-83
2021/07/06 03:30:27;;;;;;;23.65;10.13;;;;;;;19.49;69.84;100335.23;5173189;55;1140779;-82
2021/07/06 03:35:34;;;;;;;20.35;10.72;;;;;;;19.38;70.50;100347.73;5211325;55;1142863;-80
2021/07/06 03:40:40;;;;;;;17.92;10.40;;;;;;;19.36;70.79;100353.78;5234249;55;1143005;-82
2021/07/06 03:45:46;;;;;;;18.85;10.90;;;;;;;19.45;71.11;100361.58;5231559;55;1142797;-77
2021/07/06 03:50:51;;;;;;;18.55;10.50;;;;;;;19.45;71.11;100361.58;5152165;55;1142814;-79
2021/07/06 03:55:57;;;;;;;18.65;10.72;;;;;;;19.53;71.13;100360.72;5163858;55;1142862;-82
2021/07/06 04:01:04;;;;;;;23.05;9.43;;;;;;;19.55;71.42;100356.01;5162725;55;1142783;-79
2021/07/06 04:06:09;;;;;;;14.90;8.28;;;;;;;19.60;71.57;100366.50;5167608;55;1151618;-80
2021/07/06 04:11:15;;;;;;;8.23;7.37;;;;;;;19.62;71.81;100356.94;5152965;55;1140691;-79
2021/07/06 04:16:20;;;;;;;8.33;7.53;;;;;;;19.74;72.11;100356.82;5158787;55;1138605;-81
2021/07/06 04:21:26;;;;;;;8.80;7.83;;;;;;;19.81;72.18;100355.09;5156177;55;1138659;-78
2021/07/06 04:26:32;;;;;;;7.60;6.80;;;;;;;19.87;72.23;100362.39;5148229;55;1138607;-77
2021/07/06 04:31:38;;;;;;;8.90;7.78;;;;;;;19.87;72.19;100364.23;5144824;55;1138642;-76
2021/07/06 04:36:44;;;;;;;12.23;7.40;;;;;;;19.90;72.26;100366.56;5137661;55;1138586;-77
2021/07/06 04:41:50;;;;;;;10.95;7.10;;;;;;;19.92;72.28;100371.25;5145692;55;1140798;-83
2021/07/06 04:46:55;;;;;;;7.72;6.25;;;;;;;19.84;72.30;100363.28;5153957;55;1140668;-85
2021/07/06 04:52:02;;;;;;;6.97;6.37;;;;;;;19.83;72.70;100371.84;5154040;55;1138725;-81
2021/07/06 04:57:08;;;;;;;9.80;5.92;;;;;;;19.84;72.63;100376.20;5137243;55;1138571;-78
2021/07/06 05:02:13;;;;;;;8.20;6.35;;;;;;;19.76;72.93;100376.77;5138218;55;1138890;-80
2021/07/06 05:07:19;;;;;;;7.33;6.47;;;;;;;19.82;73.23;100380.08;5137579;55;1138575;-76
2021/07/06 05:12:25;;;;;;;8.30;6.37;;;;;;;19.94;73.36;100372.73;5154851;55;1138767;-79
2021/07/06 05:17:31;;;;;;;6.33;5.72;;;;;;;20.07;73.24;100379.31;5136901;56;1138628;-80
2021/07/06 05:22:37;;;;;;;7.92;5.42;;;;;;;20.05;72.92;100385.38;5145110;55;1138823;-79
2021/07/06 05:27:44;;;;;;;6.05;5.03;;;;;;;20.16;73.08;100384.94;5154533;55;1138697;-78
2021/07/06 05:32:50;;;;;;;5.28;4.78;;;;;;;20.23;72.96;100393.41;5136637;55;1138765;-80
2021/07/06 05:37:55;;;;;;;6.22;4.87;;;;;;;20.34;73.06;100385.39;5136977;55;1138704;-80
2021/07/06 05:43:01;;;;;;;5.03;3.85;;;;;;;20.44;72.85;100388.68;5146172;55;1138905;-79
2021/07/06 05:48:07;;;;;;;9.68;5.03;;;;;;;20.55;72.91;100396.27;5145481;55;1138763;-75
2021/07/06 05:53:12;;;;;;;7.78;3.75;;;;;;;20.70;72.94;100411.03;5137462;55;1139005;-80
2021/07/06 05:58:18;;;;;;;4.40;4.00;;;;;;;20.78;72.16;100404.19;5153284;55;1138854;-84
2021/07/06 06:03:24;;;;;;;10.43;3.98;;;;;;;20.85;72.40;100406.46;5144620;55;1138772;-77
2021/07/06 06:08:30;;;;;;;9.90;4.50;;;;;;;21.02;72.60;100407.91;5150371;55;1140792;-81
2021/07/06 06:13:37;;;;;;;5.92;3.90;;;;;;;21.17;72.31;100411.91;5162440;55;1138609;-84
2021/07/06 06:18:43;;;;;;;6.00;3.92;;;;;;;21.37;71.96;100411.64;5153917;55;1138757;-81
2021/07/06 06:23:49;;;;;;;8.00;2.77;;;;;;;21.54;72.05;100412.19;5153216;55;1138910;-82
2021/07/06 06:28:55;;;;;;;2.45;2.25;;;;;;;21.72;70.50;100405.01;5145726;55;1138610;-82
2021/07/06 06:34:01;;;;;;;4.16;3.02;;;;;;;21.77;69.58;100409.30;5145172;55;1138633;-85
2021/07/06 06:39:07;;;;;;;2.95;2.67;;;;;;;21.83;69.19;100416.62;5144288;56;1138570;-78
2021/07/06 06:44:13;;;;;;;3.60;3.25;;;;;;;21.91;69.08;100425.05;5155688;56;1138937;-84
2021/07/06 06:49:17;;;;;;;4.58;2.72;;;;;;;;;;5150630;56;1138737;-83
2021/07/06 06:54:23;;;;;;;8.58;2.42;;;;;;;22.21;68.76;100418.98;5170205;56;817649;-78
2021/07/06 06:59:29;;;;;;;2.05;1.75;;;;;;;22.31;67.48;100426.20;5156361;56;1136590;-85
2021/07/06 07:04:35;;;;;;;2.30;2.20;;;;;;;22.36;66.76;100421.06;5157727;55;1138578;-80
2021/07/06 07:09:40;;;;;;;2.00;1.90;;;;;;;22.46;65.61;100426.40;5134092;56;1138611;-77
2021/07/06 07:14:47;;;;;;;2.22;2.02;;;;;;;22.53;64.21;100424.27;5166395;56;1138788;-79
2021/07/06 07:19:52;;;;;;;4.17;1.90;;;;;;;22.64;64.18;100427.23;5171439;55;1138605;-81
2021/07/06 07:25:00;;;;;;;5.17;1.90;;;;;;;22.73;64.44;100417.95;5166375;55;1138578;-81
2021/07/06 07:30:08;;;;;;;7.87;1.40;;;;;;;22.77;63.51;100411.14;5143959;55;1138588;-83
2021/07/06 07:35:15;;;;;;;1.55;1.55;;;;;;;22.89;63.05;100414.63;5169540;55;1138843;-84
2021/07/06 07:40:21;;;;;;;1.60;1.50;;;;;;;23.08;62.32;100417.38;5134578;55;1138761;-82
2021/07/06 07:45:27;;;;;;;1.45;1.12;;;;;;;23.26;60.55;100422.20;5138485;55;1138683;-84
2021/07/06 07:50:34;;;;;;;1.05;1.05;;;;;;;23.38;60.11;100421.09;5147514;55;1138585;-79
2021/07/06 07:55:40;;;;;;;4.22;1.10;;;;;;;23.52;59.95;100427.40;5141195;55;1138587;-84
2021/07/06 08:00:45;;;;;;;6.35;1.67;;;;;;;23.74;59.40;100428.34;5137933;55;1138611;-84
2021/07/06 08:05:50;;;;;;;2.12;1.30;;;;;;;23.99;58.98;100426.36;5137308;55;1138594;-80
2021/07/06 08:10:59;;;;;;;1.62;1.47;;;;;;;24.17;55.95;100430.61;5145161;55;1138711;-90
2021/07/06 08:16:04;;;;;;;5.17;1.70;;;;;;;24.26;57.14;100414.54;5165195;55;1138663;-83
2021/07/06 08:21:10;;;;;;;4.40;1.62;;;;;;;24.38;56.20;100417.42;5164813;55;1138802;-78
2021/07/06 08:26:19;;;;;;;1.40;1.30;;;;;;;24.57;54.75;100421.95;5136506;56;1138669;-83
2021/07/06 08:31:24;;;;;;;6.08;1.47;;;;;;;24.76;56.52;100422.38;5137124;55;1138799;-77
2021/07/06 08:36:30;;;;;;;1.30;1.25;;;;;;;24.90;55.23;100414.52;5137352;55;1138756;-82
2021/07/06 08:41:36;;;;;;;11.73;1.87;;;;;;;24.90;54.56;100412.38;5157019;55;1138696;-80
2021/07/06 08:46:42;;;;;;;4.05;1.15;;;;;;;24.89;55.58;100402.07;5136769;55;1140734;-77
2021/07/06 08:51:50;;;;;;;1.17;1.10;;;;;;;25.09;53.98;100402.50;5146351;55;1138611;-82
2021/07/06 08:56:56;;;;;;;0.75;0.75;;;;;;;25.32;52.25;100406.03;5143600;55;1138633;-82
2021/07/06 09:02:02;;;;;;;3.92;1.20;;;;;;;25.39;52.10;100400.03;5156481;55;1138848;-78
2021/07/06 09:07:08;;;;;;;3.40;0.90;;;;;;;25.34;52.97;100400.70;5145396;55;1138772;-79
2021/07/06 09:12:14;;;;;;;1.30;1.20;;;;;;;25.55;52.09;100396.80;5137365;55;1243448;-77
2021/07/06 09:17:26;;;;;;;3.33;0.90;;;;;;;25.82;52.30;100405.56;5138000;55;1138838;-78
2021/07/06 09:22:33;;;;;;;2.03;0.90;;;;;;;26.04;52.72;100401.42;5146413;54;1138750;-77
2021/07/06 09:27:43;;;;;;;5.45;1.12;;;;;;;26.15;49.29;100415.59;5142006;55;1138923;-90
2021/07/06 09:32:57;;;;;;;1.72;0.70;;;;;;;26.33;51.62;100401.80;5141398;55;1138789;-83
2021/07/06 09:38:05;;;;;;;0.75;0.70;;;;;;;26.52;47.45;100403.47;5139826;55;1138646;-88
2021/07/06 09:43:23;;;;;;;0.85;0.80;;;;;;;26.67;48.33;100406.63;5150972;56;1138673;-82
2021/07/06 09:48:31;;;;;;;1.12;0.80;;;;;;;26.81;47.09;100399.16;5139213;56;1138712;-84
2021/07/06 09:53:36;;;;;;;1.57;0.80;;;;;;;26.88;46.94;100387.17;5129998;55;1138643;-83
2021/07/06 09:58:53;;;;;;;0.90;0.90;;;;;;;27.09;47.09;100384.50;5138195;56;1138558;-84
2021/07/06 10:04:00;;;;;;;0.82;0.80;;;;;;;27.24;44.52;100379.47;5140667;54;1138771;-76
2021/07/06 10:09:06;;;;;;;1.50;0.85;;;;;;;27.23;46.71;100369.67;5135678;55;1138836;-75
2021/07/06 10:14:12;;;;;;;0.72;0.62;;;;;;;27.37;45.48;100371.66;5135176;56;1138638;-76
2021/07/06 10:19:18;;;;;;;4.42;1.02;;;;;;;27.54;43.65;100380.78;5128666;56;1138901;-75
2021/07/06 10:24:24;;;;;;;9.03;1.45;;;;;;;27.62;44.37;100372.34;5150859;55;1138884;-76
2021/07/06 10:29:38;;;;;;;2.27;0.90;;;;;;;27.58;43.57;100363.00;5126912;56;1138932;-81
2021/07/06 10:34:45;;;;;;;5.78;1.00;;;;;;;27.60;45.64;100359.52;5134218;56;1138861;-80
2021/07/06 10:39:53;;;;;;;2.40;1.60;;;;;;;27.84;45.17;100361.72;5156499;56;1138631;-80
2021/07/06 10:45:16;;;;;;;1.70;1.40;;;;;;;28.07;44.37;100359.53;5155453;55;1138732;-80
2021/07/06 10:50:35;;;;;;;1.82;0.80;;;;;;;28.15;43.35;100365.13;5154485;55;1138823;-78
2021/07/06 10:55:43;;;;;;;2.92;1.00;;;;;;;28.27;42.77;100368.16;5147468;55;1138560;-78
2021/07/06 11:00:49;;;;;;;1.98;1.20;;;;;;;28.25;43.52;100353.17;5163400;55;1138644;-81
2021/07/06 11:05:55;;;;;;;3.12;1.32;;;;;;;28.43;42.46;100352.99;5146767;55;1138685;-81
2021/07/06 11:11:01;;;;;;;1.98;0.57;;;;;;;28.68;43.80;100335.84;5146863;55;1138742;-79
2021/07/06 11:16:11;;;;;;;0.53;0.50;;;;;;;28.92;42.77;100340.68;5177860;55;1138621;-85
2021/07/06 11:21:36;;;;;;;4.80;1.07;;;;;;;29.01;41.99;100337.88;5168285;55;1138815;-84
2021/07/06 11:26:44;;;;;;;5.10;1.25;;;;;;;29.06;41.93;100337.12;5149505;55;1138596;-87
2021/07/06 11:32:05;;;;;;;2.17;0.80;;;;;;;29.09;40.97;100340.72;5151354;55;1138643;-79
2021/07/06 11:37:14;;;;;;;19.48;1.27;;;;;;;29.13;41.25;100321.47;5171387;55;1138792;-81
2021/07/06 11:42:30;;;;;;;0.57;0.50;;;;;;;29.07;40.36;100323.80;5148596;55;1140808;-80
2021/07/06 11:47:36;;;;;;;2.42;1.22;;;;;;;29.15;39.84;100315.77;5148940;55;1138829;-81
2021/07/06 11:52:43;;;;;;;0.60;0.42;;;;;;;29.15;39.36;100317.97;5162318;55;1138833;-77
2021/07/06 11:57:53;;;;;;;5.45;0.72;;;;;;;29.13;40.64;100314.66;5172107;55;1138711;-78
2021/07/06 12:03:20;;;;;;;9.00;1.37;;;;;;;29.16;40.34;100316.07;5168432;55;1138665;-78
2021/07/06 12:08:35;;;;;;;1.60;1.15;;;;;;;29.39;40.82;100312.67;5155525;55;1138588;-80
2021/07/06 12:13:49;;;;;;;0.53;0.53;;;;;;;29.55;40.97;100315.65;5163580;55;1138807;-76
2021/07/06 12:19:09;;;;;;;0.53;0.53;;;;;;;29.72;39.69;100309.11;5163464;55;1138701;-82
2021/07/06 12:24:29;;;;;;;0.85;0.75;;;;;;;29.66;39.08;100288.30;5154056;55;1138652;-78
2021/07/06 12:29:42;;;;;;;3.92;1.07;;;;;;;29.66;39.08;100288.30;5147949;55;1138691;-76
2021/07/06 12:34:54;;;;;;;8.43;2.20;;;;;;;29.77;38.33;100283.01;5172708;55;1138731;-79
2021/07/06 12:40:09;;;;;;;13.58;1.05;;;;;;;29.80;39.60;100279.76;5148874;55;1138752;-83
2021/07/06 12:45:15;;;;;;;3.75;0.60;;;;;;;29.93;38.27;100288.97;5142632;55;1140762;-79
2021/07/06 12:50:26;;;;;;;3.80;1.12;;;;;;;30.14;38.25;100273.17;5137368;55;1138644;-78
2021/07/06 12:55:34;;;;;;;2.08;0.50;;;;;;;30.35;37.48;100268.80;5150640;55;1138887;-81
2021/07/06 13:00:41;;;;;;;5.58;0.88;;;;;;;30.52;36.66;100258.63;5171018;55;1139037;-82
2021/07/06 13:05:51;;;;;;;1.07;0.60;;;;;;;30.62;37.59;100245.11;5149961;55;1138854;-78
2021/07/06 13:11:07;;;;;;;5.30;1.10;;;;;;;30.72;37.13;100245.74;5153708;55;1138909;-76
2021/07/06 13:16:14;;;;;;;1.75;0.62;;;;;;;30.89;37.26;100240.17;5137441;55;1138849;-82
2021/07/06 13:21:26;;;;;;;3.80;1.30;;;;;;;31.01;34.41;100233.45;5132954;55;1138897;-79
2021/07/06 13:26:31;;;;;;;1.72;0.82;;;;;;;30.99;35.14;100230.17;5136166;56;1138672;-79
2021/07/06 13:31:42;;;;;;;0.68;0.68;;;;;;;31.02;34.66;100226.90;5136397;55;1138621;-80
2021/07/06 13:36:47;;;;;;;4.33;0.80;;;;;;;31.14;36.03;100233.61;5138692;55;1138817;-82
2021/07/06 13:41:53;;;;;;;1.47;0.70;;;;;;;31.26;36.23;100212.92;5157949;55;1138854;-86
2021/07/06 13:46:59;;;;;;;3.70;0.70;;;;;;;31.36;35.78;100220.64;5139321;55;1138678;-88
2021/07/06 13:52:05;;;;;;;1.60;1.37;;;;;;;31.49;35.68;100228.92;5157299;55;1138588;-84
2021/07/06 13:57:13;;;;;;;3.10;0.55;;;;;;;31.56;36.04;100226.79;5150227;55;1138788;-86
2021/07/06 14:02:18;;;;;;;4.22;0.70;;;;;;;31.63;34.64;100219.16;5151907;55;1138692;-83
2021/07/06 14:07:24;;;;;;;3.10;0.85;;;;;;;31.72;34.75;100221.72;5177829;55;1138812;-79
2021/07/06 14:12:29;;;;;;;4.15;0.78;;;;;;;31.69;34.56;100220.05;5152648;55;1138641;-78
2021/07/06 14:17:36;;;;;;;0.78;0.60;;;;;;;31.67;34.67;100208.55;5136847;55;1138785;-78
2021/07/06 14:22:44;;;;;;;0.80;0.80;;;;;;;31.71;33.40;100205.58;5136607;55;1138615;-79
2021/07/06 14:27:50;;;;;;;6.47;0.68;;;;;;;31.69;33.78;100209.94;5144364;55;1138812;-77
2021/07/06 14:32:56;;;;;;;2.85;0.70;;;;;;;31.54;34.77;100210.37;5145560;55;1138637;-81
2021/07/06 14:38:02;;;;;;;0.60;0.60;;;;;;;31.58;35.30;100195.91;5161169;55;1138991;-82
2021/07/06 14:43:08;;;;;;;1.75;1.00;;;;;;;31.61;33.90;100200.86;5136135;55;1138891;-85
2021/07/06 14:48:14;;;;;;;5.25;1.40;;;;;;;31.66;35.33;100191.87;5147926;55;1139044;-78
2021/07/06 14:53:21;;;;;;;3.47;0.95;;;;;;;31.80;34.80;100184.82;5162302;55;1138880;-82
2021/07/06 14:58:26;;;;;;;2.30;0.90;;;;;;;31.85;34.71;100179.92;5127436;56;1138899;-78
2021/07/06 15:03:32;;;;;;;1.62;0.90;;;;;;;31.88;34.75;100178.03;5167769;55;1138718;-79
2021/07/06 15:08:38;;;;;;;7.10;1.20;;;;;;;31.88;35.34;100170.66;5235083;55;1138617;-80
2021/07/06 15:13:44;;;;;;;6.47;1.30;;;;;;;31.96;34.36;100170.66;5221619;55;1138531;-78
2021/07/06 15:18:50;;;;;;;5.72;0.80;;;;;;;31.96;34.36;100170.66;5146978;56;1138597;-77
2021/07/06 15:23:56;;;;;;;3.00;1.07;;;;;;;31.91;34.33;100175.59;5147738;56;1138774;-84
2021/07/06 15:29:02;;;;;;;4.70;0.88;;;;;;;31.74;34.70;100183.17;5148256;56;1138583;-86
2021/07/06 15:34:08;;;;;;;1.57;1.07;;;;;;;31.71;35.25;100172.77;5148504;56;1138614;-81
2021/07/06 15:39:14;;;;;;;0.93;0.72;;;;;;;31.74;35.19;100176.34;5147517;56;1138629;-88
2021/07/06 15:44:23;;;;;;;0.60;0.60;;;;;;;31.64;35.38;100178.97;5147899;56;1138674;-82
2021/07/06 15:49:27;;;;;;;3.35;0.80;;;;;;;31.72;36.11;100183.44;5150491;55;1138912;-82
2021/07/06 15:54:33;;;;;;;0.65;0.50;;;;;;;31.89;36.23;100187.89;5210545;55;1138611;-79
2021/07/06 15:59:39;;;;;;;3.12;1.30;;;;;;;31.85;34.19;100194.43;5147229;56;1138646;-76
2021/07/06 16:04:46;;;;;;;3.55;1.60;;;;;;;31.71;34.96;100198.20;5147147;56;1138770;-76
2021/07/06 16:09:52;;;;;;;1.75;0.85;;;;;;;31.73;35.26;100206.14;5147501;56;1138639;-77
2021/07/06 16:14:58;;;;;;;0.98;0.90;;;;;;;31.57;35.32;100214.77;5147213;56;1138654;-78
2021/07/06 16:20:05;;;;;;;10.28;1.90;;;;;;;31.35;35.62;100227.19;5147260;56;1138830;-81
2021/07/06 16:25:11;;;;;;;6.75;2.72;;;;;;;31.25;36.10;100221.66;5158209;55;1140794;-80
2021/07/06 16:30:19;;;;;;;7.50;1.12;;;;;;;31.24;35.78;100225.48;5146799;56;1138650;-79
2021/07/06 16:35:26;;;;;;;2.02;0.98;;;;;;;31.17;35.82;100226.23;5158728;55;1138779;-80
2021/07/06 16:40:32;;;;;;;0.70;0.70;;;;;;;31.11;36.50;100213.64;5161437;55;1138868;-82
2021/07/06 16:45:38;;;;;;;9.55;2.10;;;;;;;31.10;35.96;100223.73;5147154;55;1138882;-81
2021/07/06 18:00:44;;;;;;;1.82;0.95;;;;;;;30.70;38.20;100250.66;4919340;58;1138896;-79
2021/07/06 18:05:56;;;;;;;7.83;2.05;;;;;;;30.73;38.23;100255.05;4983052;58;1138753;-77
2021/07/06 18:11:05;;;;;;;9.18;1.45;;;;;;;30.69;38.28;100253.94;4986618;57;1138824;-78
2021/07/06 18:16:11;;;;;;;7.95;1.05;;;;;;;30.59;38.55;100254.34;4986617;58;1138693;-79
2021/07/06 18:21:17;;;;;;;18.90;1.90;;;;;;;30.50;38.81;100260.78;5118806;55;1138859;-87
2021/07/06 18:26:23;;;;;;;21.15;11.68;;;;;;;30.42;38.99;100257.95;5168812;55;1140784;-86
2021/07/06 18:31:28;;;;;;;5.08;2.62;;;;;;;30.41;39.61;100253.58;5203414;55;1142707;-86
2021/07/06 18:36:34;;;;;;;20.00;9.70;;;;;;;30.49;39.75;100256.95;5142676;56;1138567;-85
2021/07/06 18:41:40;;;;;;;6.87;2.93;;;;;;;30.49;39.74;100249.58;5146248;56;1140715;-85
2021/07/06 18:46:47;;;;;;;13.32;2.05;;;;;;;30.47;39.90;100249.55;5145918;56;1138585;-85
2021/07/06 18:51:55;;;;;;;35.35;3.45;;;;;;;30.39;40.11;100246.75;5145687;56;1140727;-85
2021/07/06 18:57:01;;;;;;;21.93;2.55;;;;;;;30.31;40.77;100245.28;5176980;55;1140950;-85
2021/07/06 19:02:25;;;;;;;13.00;2.75;;;;;;;30.19;41.09;100247.33;5145995;55;1140703;-87
2021/07/06 19:07:26;;;;;;;6.17;3.50;;;;;;;30.05;41.48;100245.52;5145674;56;1140730;-83
2021/07/06 19:12:32;;;;;;;15.25;3.12;;;;;;;29.89;41.94;100245.01;5147353;56;1138808;-83
2021/07/06 19:17:37;;;;;;;21.27;3.85;;;;;;;29.79;42.52;100250.87;5146620;56;1140746;-81
2021/07/06 19:22:44;;;;;;;12.10;2.42;;;;;;;29.63;43.30;100256.64;5146923;56;1141228;-82
2021/07/06 19:27:50;;;;;;;18.10;3.75;;;;;;;29.49;43.57;100263.48;5146635;56;1140790;-82
2021/07/06 19:32:55;;;;;;;7.65;2.35;;;;;;;29.35;44.20;100269.25;5146848;56;1140883;-85
2021/07/06 19:38:03;;;;;;;8.45;2.60;;;;;;;29.18;44.46;100279.31;5146782;56;1138806;-84
2021/07/06 19:43:08;;;;;;;13.30;3.05;;;;;;;29.06;45.05;100282.66;5147111;56;1138709;-81
2021/07/06 19:48:14;;;;;;;22.52;3.52;;;;;;;28.91;45.83;100291.91;5146059;56;1140755;-84
2021/07/06 19:53:20;;;;;;;51.92;5.67;;;;;;;28.69;46.34;100295.84;5146871;56;1140773;-84
2021/07/06 19:58:27;;;;;;;21.77;2.95;;;;;;;28.49;46.29;100292.72;5229208;55;1140991;-85
2021/07/06 20:03:35;;;;;;;13.03;1.82;;;;;;;28.27;46.83;100295.25;5208074;55;1140933;-86
2021/07/06 20:08:41;;;;;;;4.28;1.10;;;;;;;27.96;47.88;100289.66;5244147;55;1141287;-83
2021/07/06 20:13:47;;;;;;;3.58;2.33;;;;;;;27.78;48.60;100291.19;5189709;55;1138776;-84
2021/07/06 20:18:52;;;;;;;12.73;2.87;;;;;;;27.74;49.01;100299.50;5185696;55;1138627;-85
2021/07/06 20:24:00;;;;;;;10.20;3.52;;;;;;;27.75;49.29;100299.27;5223354;55;1140836;-82
2021/07/06 20:29:07;;;;;;;6.83;3.42;;;;;;;27.70;49.48;100300.50;5156354;56;1140628;-84
2021/07/06 20:34:14;;;;;;;10.00;2.30;;;;;;;27.58;49.65;100302.39;5190045;56;1138730;-85
2021/07/06 20:39:20;;;;;;;8.55;2.05;;;;;;;27.52;49.99;100304.12;5217049;55;1140860;-82
2021/07/06 20:44:26;;;;;;;21.93;2.20;;;;;;;27.49;50.06;100295.64;5164397;55;1138561;-84
2021/07/06 20:49:31;;;;;;;4.25;1.92;;;;;;;27.44;50.03;100295.50;5199937;55;1140914;-84
2021/07/06 20:54:42;;;;;;;4.45;1.90;;;;;;;27.36;50.08;100293.94;5217291;55;1138529;-84
2021/07/06 20:59:47;;;;;;;2.67;2.05;;;;;;;27.32;50.16;100292.78;5154035;55;1138908;-86
2021/07/06 21:04:53;;;;;;;3.15;1.92;;;;;;;27.27;50.26;100294.00;5138153;55;1138612;-84
2021/07/06 21:09:58;;;;;;;1.80;1.70;;;;;;;27.19;50.35;100286.21;5158860;55;1138978;-83
2021/07/06 21:15:08;;;;;;;1.80;1.70;;;;;;;27.05;50.48;100285.56;5234793;55;1138808;-83
2021/07/06 21:20:15;;;;;;;33.30;2.60;;;;;;;26.89;50.75;100278.88;5229927;55;1138853;-84
2021/07/06 21:25:21;;;;;;;4.87;1.47;;;;;;;26.74;51.07;100266.27;5234330;55;1140665;-83
2021/07/06 21:30:27;;;;;;;5.90;2.50;;;;;;;26.63;51.45;100276.55;5235109;55;1138637;-83
2021/07/06 21:35:33;;;;;;;6.95;3.27;;;;;;;26.53;51.72;100282.53;5234765;55;1138532;-84
2021/07/06 21:40:39;;;;;;;4.30;2.98;;;;;;;26.49;51.79;100290.83;5229404;55;1139076;-86
2021/07/06 21:45:45;;;;;;;7.28;2.00;;;;;;;26.46;51.81;100293.98;5222762;55;1138565;-85
2021/07/06 21:50:51;;;;;;;2.33;1.87;;;;;;;26.42;51.58;100300.94;5231534;55;1138559;-82
2021/07/06 21:55:57;;;;;;;5.08;2.02;;;;;;;26.38;51.49;100294.31;5203078;55;1138620;-83
2021/07/06 22:01:03;;;;;;;3.55;2.20;;;;;;;26.35;51.38;100292.05;5207470;55;1138789;-83
2021/07/06 22:06:09;;;;;;;7.05;2.52;;;;;;;26.34;51.26;100295.81;5182086;55;1138631;-83
2021/07/06 22:11:15;;;;;;;4.15;2.37;;;;;;;26.27;51.00;100295.88;5180517;55;1138859;-83
2021/07/06 22:16:21;;;;;;;3.37;2.30;;;;;;;26.18;51.01;100308.06;5193130;55;1138829;-83
2021/07/06 22:21:26;;;;;;;9.95;2.50;;;;;;;26.09;50.91;100316.20;5203026;55;1138778;-82
2021/07/06 22:26:35;;;;;;;4.20;2.70;;;;;;;26.01;51.02;100317.84;5190995;55;1138586;-83
2021/07/06 22:31:41;;;;;;;3.27;2.42;;;;;;;25.96;51.08;100320.41;5184259;55;1138671;-83
2021/07/06 22:36:47;;;;;;;5.95;2.77;;;;;;;25.93;51.21;100314.91;5180642;55;1138527;-83
2021/07/06 22:41:53;;;;;;;3.35;2.83;;;;;;;25.84;51.23;100312.17;5146556;56;1138780;-82
2021/07/06 22:46:59;;;;;;;5.58;2.62;;;;;;;25.78;51.41;100300.89;5147660;55;1138672;-83
2021/07/06 22:52:06;;;;;;;9.05;3.10;;;;;;;25.75;51.56;100308.63;5181708;55;1138665;-82
2021/07/06 22:57:12;;;;;;;9.13;2.72;;;;;;;25.73;51.63;100308.85;5195036;55;1138686;-82
2021/07/06 23:02:18;;;;;;;8.95;2.67;;;;;;;25.65;51.69;100297.48;5228790;55;1138577;-82
2021/07/06 23:07:23;;;;;;;4.78;2.77;;;;;;;25.54;51.80;100303.05;5223620;55;1138757;-83
2021/07/06 23:12:29;;;;;;;8.40;4.50;;;;;;;25.45;51.96;100307.93;5223943;55;1138726;-83
2021/07/06 23:17:36;;;;;;;5.35;3.92;;;;;;;25.41;52.05;100325.66;5223571;55;1138758;-82
2021/07/06 23:22:42;;;;;;;14.95;3.40;;;;;;;25.36;52.14;100327.39;5223842;55;1138782;-83
2021/07/06 23:27:47;;;;;;;11.80;5.03;;;;;;;25.30;52.30;100333.14;5223559;55;1140882;-82
2021/07/06 23:32:53;;;;;;;5.08;3.83;;;;;;;25.29;52.43;100349.61;5223697;55;1140919;-83
2021/07/06 23:37:59;;;;;;;5.87;3.17;;;;;;;25.26;52.60;100359.52;5223882;55;1138604;-82
2021/07/06 23:43:05;;;;;;;7.42;3.58;;;;;;;24.94;52.58;100362.72;5223117;55;1138602;-83
2021/07/06 23:48:11;;;;;;;9.98;4.72;;;;;;;24.57;53.27;100361.63;5223845;55;1138685;-82
2021/07/06 23:53:19;;;;;;;11.45;4.55;;;;;;;24.49;54.22;100368.09;5223842;55;1138720;-83
2021/07/06 23:58:24;;;;;;;6.85;3.12;;;;;;;24.46;54.96;100366.64;5148855;55;1140855;-82
